PWSweather.com
Personal Weather Stations
Station Observations
GRACELEHAN
The Grace C. Lehan Memorial Weather Station, West Hartford, CT 06107

The Grace C. Lehan Memorial Weather StationWest Hartford, CT 06107

Lat: 41.745629, Lon: -72.7443516

Elevation: 136

Station Type: Davis Vantage Pro2 Plus

Latest ConditionsUpdated 7:10:13 PM EDT Tuesday, Mar 26, 2019
Currently Today's Max Today's Min Today's Average
Temperature 42.1°F5.6°C 47.4°F8.6°C 31.8°F-0.1°C 41.8°F5.4°C
Dew Point 8.8°F-12.9°C 12.3°F-10.9°C 5.6°F-14.7°C 9.1°F-12.7°C
Winds 2.0 mph NNE3.2 kmh NNE 17.0 mph -27.4 kmh - - 4.0 mph 6.4 kmh
Wind Gusts 9.0 mph14.5 kmh 17.0 mph27.4 kmh - -
Humidity 25% 40% 19% 26%
Pressure 30.26 in1024.7 mb 30.27 in1025.1 mb 30.21 in1023.0 mb -
Hour Temp Dew Point Humidity Winds Wind Gusts Pressure Precip Precip Rate Daily Precip Total
07:10 PM 42.1°F5.6°C 8.8°F-12.9°C 25% 2.0 mph NNE3.2 kmh NNE 9.0 mph14.5 kmh 30.26 in1024.7 mb 0.00 in0.0 mm 0.00 in0.0 mm 0.00 in0.0 mm
07:08 PM 42.2°F5.7°C 8.9°F-12.8°C 25% 1.0 mph NNE1.6 kmh NNE 9.0 mph14.5 kmh 30.27 in1025.1 mb 0.00 in0.0 mm 0.00 in0.0 mm 0.00 in0.0 mm
07:06 PM 42.2°F5.7°C 8.0°F-13.3°C 24% 5.0 mph NE8.0 kmh NE 9.0 mph14.5 kmh 30.27 in1025.1 mb 0.00 in0.0 mm 0.00 in0.0 mm 0.00 in0.0 mm
07:04 PM 42.3°F5.7°C 8.1°F-13.3°C 24% 1.0 mph NNE1.6 kmh NNE 6.0 mph9.7 kmh 30.26 in1024.7 mb 0.00 in0.0 mm 0.00 in0.0 mm 0.00 in0.0 mm
07:02 PM 42.3°F5.7°C 9.0°F-12.8°C 25% Calm Calm 6.0 mph9.7 kmh 30.26 in1024.7 mb 0.00 in0.0 mm 0.00 in0.0 mm 0.00 in0.0 mm
07:00 PM 42.4°F5.8°C 9.1°F-12.7°C 25% 4.0 mph N6.4 kmh N 6.0 mph9.7 kmh 30.26 in1024.7 mb 0.00 in0.0 mm 0.00 in0.0 mm 0.00 in0.0 mm
06:58 PM 42.5°F5.8°C 8.3°F-13.2°C 24% 1.0 mph NNW1.6 kmh NNW 14.0 mph22.5 kmh 30.26 in1024.7 mb 0.00 in0.0 mm 0.00 in0.0 mm 0.00 in0.0 mm
06:56 PM 42.5°F5.8°C 8.3°F-13.2°C 24% 4.0 mph NNE6.4 kmh NNE 14.0 mph22.5 kmh 30.26 in1024.7 mb 0.00 in0.0 mm 0.00 in0.0 mm 0.00 in0.0 mm
06:54 PM 42.6°F5.9°C 8.4°F-13.1°C 24% 10.0 mph NNW16.1 kmh NNW 13.0 mph20.9 kmh 30.26 in1024.7 mb 0.00 in0.0 mm 0.00 in0.0 mm 0.00 in0.0 mm
06:52 PM 42.7°F5.9°C 8.4°F-13.1°C 24% 4.0 mph NW6.4 kmh NW 12.0 mph19.3 kmh 30.26 in1024.7 mb 0.00 in0.0 mm 0.00 in0.0 mm 0.00 in0.0 mm
06:50 PM 42.8°F6.0°C 8.5°F-13.1°C 24% 10.0 mph NW16.1 kmh NW 12.0 mph19.3 kmh 30.26 in1024.7 mb 0.00 in0.0 mm 0.00 in0.0 mm 0.00 in0.0 mm
06:48 PM 42.8°F6.0°C 9.4°F-12.6°C 25% 3.0 mph N4.8 kmh N 12.0 mph19.3 kmh 30.26 in1024.7 mb 0.00 in0.0 mm 0.00 in0.0 mm 0.00 in0.0 mm
06:46 PM 42.9°F6.1°C 9.5°F-12.5°C 25% Calm Calm 12.0 mph19.3 kmh 30.25 in1024.4 mb 0.00 in0.0 mm 0.00 in0.0 mm 0.00 in0.0 mm
06:44 PM 42.9°F6.1°C 8.6°F-13.0°C 24% 2.0 mph N3.2 kmh N 12.0 mph19.3 kmh 30.25 in1024.4 mb 0.00 in0.0 mm 0.00 in0.0 mm 0.00 in0.0 mm
06:42 PM 43.0°F6.1°C 9.6°F-12.4°C 25% 6.0 mph N9.7 kmh N 12.0 mph19.3 kmh 30.25 in1024.4 mb 0.00 in0.0 mm 0.00 in0.0 mm 0.00 in0.0 mm
06:40 PM 43.1°F6.2°C 8.8°F-12.9°C 24% 5.0 mph N8.0 kmh N 12.0 mph19.3 kmh 30.25 in1024.4 mb 0.00 in0.0 mm 0.00 in0.0 mm 0.00 in0.0 mm
06:38 PM 43.1°F6.2°C 8.8°F-12.9°C 24% 7.0 mph NW11.3 kmh NW 12.0 mph19.3 kmh 30.25 in1024.4 mb 0.00 in0.0 mm 0.00 in0.0 mm 0.00 in0.0 mm
06:36 PM 43.2°F6.2°C 8.9°F-12.8°C 24% 10.0 mph NW16.1 kmh NW 12.0 mph19.3 kmh 30.25 in1024.4 mb 0.00 in0.0 mm 0.00 in0.0 mm 0.00 in0.0 mm
06:34 PM 43.2°F6.2°C 8.9°F-12.8°C 24% 4.0 mph N6.4 kmh N 10.0 mph16.1 kmh 30.25 in1024.4 mb 0.00 in0.0 mm 0.00 in0.0 mm 0.00 in0.0 mm
06:32 PM 43.3°F6.3°C 9.9°F-12.3°C 25% 4.0 mph N6.4 kmh N 7.0 mph11.3 kmh 30.25 in1024.4 mb 0.00 in0.0 mm 0.00 in0.0 mm 0.00 in0.0 mm
06:30 PM 43.4°F6.3°C 9.0°F-12.8°C 24% Calm Calm 13.0 mph20.9 kmh 30.25 in1024.4 mb 0.00 in0.0 mm 0.00 in0.0 mm 0.00 in0.0 mm
06:28 PM 43.5°F6.4°C 9.1°F-12.7°C 24% 5.0 mph NNW8.0 kmh NNW 13.0 mph20.9 kmh 30.25 in1024.4 mb 0.00 in0.0 mm 0.00 in0.0 mm 0.00 in0.0 mm
06:26 PM 43.5°F6.4°C 9.1°F-12.7°C 24% 7.0 mph NW11.3 kmh NW 13.0 mph20.9 kmh 30.25 in1024.4 mb 0.00 in0.0 mm 0.00 in0.0 mm 0.00 in0.0 mm
06:24 PM 43.6°F6.4°C 9.2°F-12.7°C 24% 1.0 mph NE1.6 kmh NE 13.0 mph20.9 kmh 30.25 in1024.4 mb 0.00 in0.0 mm 0.00 in0.0 mm 0.00 in0.0 mm
06:22 PM 43.6°F6.4°C 9.2°F-12.7°C 24% Calm Calm 13.0 mph20.9 kmh 30.25 in1024.4 mb 0.00 in0.0 mm 0.00 in0.0 mm 0.00 in0.0 mm
06:20 PM 43.7°F6.5°C 9.3°F-12.6°C 24% 6.0 mph N9.7 kmh N 13.0 mph20.9 kmh 30.25 in1024.4 mb 0.00 in0.0 mm 0.00 in0.0 mm 0.00 in0.0 mm
06:18 PM 43.7°F6.5°C 9.3°F-12.6°C 24% 11.0 mph NW17.7 kmh NW 13.0 mph20.9 kmh 30.25 in1024.4 mb 0.00 in0.0 mm 0.00 in0.0 mm 0.00 in0.0 mm
06:16 PM 43.8°F6.6°C 9.4°F-12.6°C 24% 4.0 mph NE6.4 kmh NE 13.0 mph20.9 kmh 30.25 in1024.4 mb 0.00 in0.0 mm 0.00 in0.0 mm 0.00 in0.0 mm
06:14 PM 43.8°F6.6°C 9.4°F-12.6°C 24% 3.0 mph NNE4.8 kmh NNE 13.0 mph20.9 kmh 30.25 in1024.4 mb 0.00 in0.0 mm 0.00 in0.0 mm 0.00 in0.0 mm
06:12 PM 43.9°F6.6°C 9.5°F-12.5°C 24% 4.0 mph N6.4 kmh N 13.0 mph20.9 kmh 30.25 in1024.4 mb 0.00 in0.0 mm 0.00 in0.0 mm 0.00 in0.0 mm
06:10 PM 43.9°F6.6°C 9.5°F-12.5°C 24% 2.0 mph N3.2 kmh N 13.0 mph20.9 kmh 30.25 in1024.4 mb 0.00 in0.0 mm 0.00 in0.0 mm 0.00 in0.0 mm
06:08 PM 43.9°F6.6°C 9.5°F-12.5°C 24% 2.0 mph NE3.2 kmh NE 13.0 mph20.9 kmh 30.25 in1024.4 mb 0.00 in0.0 mm 0.00 in0.0 mm 0.00 in0.0 mm
06:06 PM 44.0°F6.7°C 9.5°F-12.5°C 24% 3.0 mph NE4.8 kmh NE 13.0 mph20.9 kmh 30.25 in1024.4 mb 0.00 in0.0 mm 0.00 in0.0 mm 0.00 in0.0 mm
06:04 PM 44.0°F6.7°C 8.6°F-13.0°C 23% 2.0 mph NNE3.2 kmh NNE 13.0 mph20.9 kmh 30.24 in1024.0 mb 0.00 in0.0 mm 0.00 in0.0 mm 0.00 in0.0 mm
06:02 PM 44.1°F6.7°C 9.6°F-12.4°C 24% 6.0 mph N9.7 kmh N 13.0 mph20.9 kmh 30.24 in1024.0 mb 0.00 in0.0 mm 0.00 in0.0 mm 0.00 in0.0 mm
06:00 PM 44.1°F6.7°C 8.7°F-12.9°C 23% 4.0 mph NNW6.4 kmh NNW 17.0 mph27.4 kmh 30.24 in1024.0 mb 0.00 in0.0 mm 0.00 in0.0 mm 0.00 in0.0 mm
05:58 PM 44.2°F6.8°C 8.8°F-12.9°C 23% 4.0 mph N6.4 kmh N 17.0 mph27.4 kmh 30.24 in1024.0 mb 0.00 in0.0 mm 0.00 in0.0 mm 0.00 in0.0 mm
05:56 PM 44.2°F6.8°C 9.7°F-12.4°C 24% 6.0 mph N9.7 kmh N 17.0 mph27.4 kmh 30.25 in1024.4 mb 0.00 in0.0 mm 0.00 in0.0 mm 0.00 in0.0 mm
05:54 PM 44.3°F6.8°C 8.9°F-12.8°C 23% 3.0 mph N4.8 kmh N 17.0 mph27.4 kmh 30.24 in1024.0 mb 0.00 in0.0 mm 0.00 in0.0 mm 0.00 in0.0 mm
05:52 PM 44.3°F6.8°C 9.8°F-12.3°C 24% 4.0 mph N6.4 kmh N 17.0 mph27.4 kmh 30.24 in1024.0 mb 0.00 in0.0 mm 0.00 in0.0 mm 0.00 in0.0 mm
05:50 PM 44.3°F6.8°C 8.9°F-12.8°C 23% 1.0 mph ENE1.6 kmh ENE 17.0 mph27.4 kmh 30.24 in1024.0 mb 0.00 in0.0 mm 0.00 in0.0 mm 0.00 in0.0 mm
05:48 PM 44.4°F6.9°C 8.9°F-12.8°C 23% 9.0 mph NNW14.5 kmh NNW 17.0 mph27.4 kmh 30.24 in1024.0 mb 0.00 in0.0 mm 0.00 in0.0 mm 0.00 in0.0 mm
05:46 PM 44.4°F6.9°C 9.9°F-12.3°C 24% 3.0 mph NNE4.8 kmh NNE 17.0 mph27.4 kmh 30.24 in1024.0 mb 0.00 in0.0 mm 0.00 in0.0 mm 0.00 in0.0 mm
05:44 PM 44.5°F6.9°C 10.0°F-12.2°C 24% 3.0 mph NNE4.8 kmh NNE 17.0 mph27.4 kmh 30.24 in1024.0 mb 0.00 in0.0 mm 0.00 in0.0 mm 0.00 in0.0 mm
05:42 PM 44.5°F6.9°C 9.0°F-12.8°C 23% 4.0 mph N6.4 kmh N 17.0 mph27.4 kmh 30.24 in1024.0 mb 0.00 in0.0 mm 0.00 in0.0 mm 0.00 in0.0 mm
05:40 PM 44.5°F6.9°C 10.0°F-12.2°C 24% 6.0 mph N9.7 kmh N 17.0 mph27.4 kmh 30.24 in1024.0 mb 0.00 in0.0 mm 0.00 in0.0 mm 0.00 in0.0 mm
05:38 PM 44.5°F6.9°C 10.0°F-12.2°C 24% 5.0 mph N8.0 kmh N 17.0 mph27.4 kmh 30.24 in1024.0 mb 0.00 in0.0 mm 0.00 in0.0 mm 0.00 in0.0 mm
05:36 PM 44.6°F7.0°C 9.1°F-12.7°C 23% Calm Calm 17.0 mph27.4 kmh 30.24 in1024.0 mb 0.00 in0.0 mm 0.00 in0.0 mm 0.00 in0.0 mm
05:34 PM 44.6°F7.0°C 9.1°F-12.7°C 23% 4.0 mph NE6.4 kmh NE 17.0 mph27.4 kmh 30.24 in1024.0 mb 0.00 in0.0 mm 0.00 in0.0 mm 0.00 in0.0 mm
05:32 PM 44.7°F7.1°C 9.2°F-12.7°C 23% 5.0 mph N8.0 kmh N 17.0 mph27.4 kmh 30.24 in1024.0 mb 0.00 in0.0 mm 0.00 in0.0 mm 0.00 in0.0 mm
05:30 PM 44.8°F7.1°C 9.3°F-12.6°C 23% 15.0 mph NW24.1 kmh NW 15.0 mph24.1 kmh 30.24 in1024.0 mb 0.00 in0.0 mm 0.00 in0.0 mm 0.00 in0.0 mm
05:28 PM 44.8°F7.1°C 8.3°F-13.2°C 22% 4.0 mph NE6.4 kmh NE 15.0 mph24.1 kmh 30.24 in1024.0 mb 0.00 in0.0 mm 0.00 in0.0 mm 0.00 in0.0 mm
05:26 PM 44.9°F7.2°C 9.4°F-12.6°C 23% 6.0 mph NW9.7 kmh NW 15.0 mph24.1 kmh 30.24 in1024.0 mb 0.00 in0.0 mm 0.00 in0.0 mm 0.00 in0.0 mm
05:24 PM 44.9°F7.2°C 9.4°F-12.6°C 23% 6.0 mph NNW9.7 kmh NNW 15.0 mph24.1 kmh 30.23 in1023.7 mb 0.00 in0.0 mm 0.00 in0.0 mm 0.00 in0.0 mm
05:22 PM 45.0°F7.2°C 9.4°F-12.6°C 23% 1.0 mph NE1.6 kmh NE 15.0 mph24.1 kmh 30.23 in1023.7 mb 0.00 in0.0 mm 0.00 in0.0 mm 0.00 in0.0 mm
05:20 PM 45.0°F7.2°C 9.4°F-12.6°C 23% 5.0 mph NNW8.0 kmh NNW 15.0 mph24.1 kmh 30.23 in1023.7 mb 0.00 in0.0 mm 0.00 in0.0 mm 0.00 in0.0 mm
05:18 PM 45.1°F7.3°C 8.5°F-13.1°C 22% 2.0 mph NW3.2 kmh NW 15.0 mph24.1 kmh 30.23 in1023.7 mb 0.00 in0.0 mm 0.00 in0.0 mm 0.00 in0.0 mm
05:16 PM 45.1°F7.3°C 8.5°F-13.1°C 22% 9.0 mph NW14.5 kmh NW 15.0 mph24.1 kmh 30.23 in1023.7 mb 0.00 in0.0 mm 0.00 in0.0 mm 0.00 in0.0 mm
05:14 PM 45.2°F7.3°C 8.6°F-13.0°C 22% 5.0 mph NW8.0 kmh NW 15.0 mph24.1 kmh 30.23 in1023.7 mb 0.00 in0.0 mm 0.00 in0.0 mm 0.00 in0.0 mm
05:12 PM 45.2°F7.3°C 8.6°F-13.0°C 22% 5.0 mph NNW8.0 kmh NNW 15.0 mph24.1 kmh 30.23 in1023.7 mb 0.00 in0.0 mm 0.00 in0.0 mm 0.00 in0.0 mm
05:10 PM 45.3°F7.4°C 8.7°F-12.9°C 22% 10.0 mph WNW16.1 kmh WNW 14.0 mph22.5 kmh 30.23 in1023.7 mb 0.00 in0.0 mm 0.00 in0.0 mm 0.00 in0.0 mm
05:08 PM 45.3°F7.4°C 9.7°F-12.4°C 23% 2.0 mph NNW3.2 kmh NNW 14.0 mph22.5 kmh 30.23 in1023.7 mb 0.00 in0.0 mm 0.00 in0.0 mm 0.00 in0.0 mm
05:06 PM 45.3°F7.4°C 8.7°F-12.9°C 22% 1.0 mph NW1.6 kmh NW 14.0 mph22.5 kmh 30.23 in1023.7 mb 0.00 in0.0 mm 0.00 in0.0 mm 0.00 in0.0 mm
05:04 PM 45.3°F7.4°C 9.7°F-12.4°C 23% 5.0 mph NW8.0 kmh NW 14.0 mph22.5 kmh 30.23 in1023.7 mb 0.00 in0.0 mm 0.00 in0.0 mm 0.00 in0.0 mm
05:02 PM 45.4°F7.4°C 9.8°F-12.3°C 23% 10.0 mph WNW16.1 kmh WNW 14.0 mph22.5 kmh 30.23 in1023.7 mb 0.00 in0.0 mm 0.00 in0.0 mm 0.00 in0.0 mm
05:00 PM 45.4°F7.4°C 9.8°F-12.3°C 23% 13.0 mph NW20.9 kmh NW 16.0 mph25.7 kmh 30.22 in1023.4 mb 0.00 in0.0 mm 0.00 in0.0 mm 0.00 in0.0 mm
04:58 PM 45.4°F7.4°C 8.8°F-12.9°C 22% 1.0 mph NE1.6 kmh NE 15.0 mph24.1 kmh 30.22 in1023.4 mb 0.00 in0.0 mm 0.00 in0.0 mm 0.00 in0.0 mm
04:56 PM 45.4°F7.4°C 8.8°F-12.9°C 22% 4.0 mph NNE6.4 kmh NNE 15.0 mph24.1 kmh 30.22 in1023.4 mb 0.00 in0.0 mm 0.00 in0.0 mm 0.00 in0.0 mm
04:54 PM 45.5°F7.5°C 8.9°F-12.8°C 22% 5.0 mph N8.0 kmh N 15.0 mph24.1 kmh 30.22 in1023.4 mb 0.00 in0.0 mm 0.00 in0.0 mm 0.00 in0.0 mm
04:52 PM 45.6°F7.6°C 9.0°F-12.8°C 22% 1.0 mph NW1.6 kmh NW 15.0 mph24.1 kmh 30.22 in1023.4 mb 0.00 in0.0 mm 0.00 in0.0 mm 0.00 in0.0 mm
04:50 PM 45.6°F7.6°C 10.0°F-12.2°C 23% 10.0 mph N16.1 kmh N 15.0 mph24.1 kmh 30.22 in1023.4 mb 0.00 in0.0 mm 0.00 in0.0 mm 0.00 in0.0 mm
04:48 PM 45.6°F7.6°C 10.0°F-12.2°C 23% Calm Calm 15.0 mph24.1 kmh 30.22 in1023.4 mb 0.00 in0.0 mm 0.00 in0.0 mm 0.00 in0.0 mm
04:46 PM 45.7°F7.6°C 10.0°F-12.2°C 23% 6.0 mph NE9.7 kmh NE 15.0 mph24.1 kmh 30.22 in1023.4 mb 0.00 in0.0 mm 0.00 in0.0 mm 0.00 in0.0 mm
04:44 PM 45.8°F7.7°C 9.1°F-12.7°C 22% 8.0 mph N12.9 kmh N 15.0 mph24.1 kmh 30.22 in1023.4 mb 0.00 in0.0 mm 0.00 in0.0 mm 0.00 in0.0 mm
04:42 PM 45.8°F7.7°C 8.1°F-13.3°C 21% 2.0 mph NE3.2 kmh NE 15.0 mph24.1 kmh 30.22 in1023.4 mb 0.00 in0.0 mm 0.00 in0.0 mm 0.00 in0.0 mm
04:40 PM 45.9°F7.7°C 8.2°F-13.2°C 21% 4.0 mph N6.4 kmh N 15.0 mph24.1 kmh 30.22 in1023.4 mb 0.00 in0.0 mm 0.00 in0.0 mm 0.00 in0.0 mm
04:38 PM 45.9°F7.7°C 9.2°F-12.7°C 22% 4.0 mph NE6.4 kmh NE 15.0 mph24.1 kmh 30.22 in1023.4 mb 0.00 in0.0 mm 0.00 in0.0 mm 0.00 in0.0 mm
04:36 PM 46.0°F7.8°C 8.3°F-13.2°C 21% 5.0 mph NNW8.0 kmh NNW 15.0 mph24.1 kmh 30.22 in1023.4 mb 0.00 in0.0 mm 0.00 in0.0 mm 0.00 in0.0 mm
04:34 PM 46.0°F7.8°C 10.3°F-12.1°C 23% 4.0 mph N6.4 kmh N 10.0 mph16.1 kmh 30.22 in1023.4 mb 0.00 in0.0 mm 0.00 in0.0 mm 0.00 in0.0 mm
04:32 PM 46.0°F7.8°C 9.3°F-12.6°C 22% 5.0 mph N8.0 kmh N 10.0 mph16.1 kmh 30.22 in1023.4 mb 0.00 in0.0 mm 0.00 in0.0 mm 0.00 in0.0 mm
04:30 PM 45.9°F7.7°C 9.2°F-12.7°C 22% 7.0 mph WNW11.3 kmh WNW 17.0 mph27.4 kmh 30.22 in1023.4 mb 0.00 in0.0 mm 0.00 in0.0 mm 0.00 in0.0 mm
04:28 PM 46.0°F7.8°C 9.3°F-12.6°C 22% 9.0 mph NW14.5 kmh NW 17.0 mph27.4 kmh 30.22 in1023.4 mb 0.00 in0.0 mm 0.00 in0.0 mm 0.00 in0.0 mm
04:26 PM 46.1°F7.8°C 9.4°F-12.6°C 22% 2.0 mph NNW3.2 kmh NNW 17.0 mph27.4 kmh 30.22 in1023.4 mb 0.00 in0.0 mm 0.00 in0.0 mm 0.00 in0.0 mm
04:24 PM 46.2°F7.9°C 10.5°F-11.9°C 23% 3.0 mph NNE4.8 kmh NNE 17.0 mph27.4 kmh 30.22 in1023.4 mb 0.00 in0.0 mm 0.00 in0.0 mm 0.00 in0.0 mm
04:22 PM 46.3°F7.9°C 10.6°F-11.9°C 23% 5.0 mph NW8.0 kmh NW 17.0 mph27.4 kmh 30.22 in1023.4 mb 0.00 in0.0 mm 0.00 in0.0 mm 0.00 in0.0 mm
04:20 PM 46.3°F7.9°C 11.5°F-11.4°C 24% 3.0 mph NNE4.8 kmh NNE 17.0 mph27.4 kmh 30.22 in1023.4 mb 0.00 in0.0 mm 0.00 in0.0 mm 0.00 in0.0 mm
04:18 PM 46.4°F8.0°C 10.6°F-11.9°C 23% 5.0 mph NNE8.0 kmh NNE 17.0 mph27.4 kmh 30.22 in1023.4 mb 0.00 in0.0 mm 0.00 in0.0 mm 0.00 in0.0 mm
04:16 PM 46.5°F8.1°C 9.7°F-12.4°C 22% 2.0 mph NE3.2 kmh NE 16.0 mph25.7 kmh 30.22 in1023.4 mb 0.00 in0.0 mm 0.00 in0.0 mm 0.00 in0.0 mm
04:14 PM 46.6°F8.1°C 10.8°F-11.8°C 23% 2.0 mph NNW3.2 kmh NNW 16.0 mph25.7 kmh 30.22 in1023.4 mb 0.00 in0.0 mm 0.00 in0.0 mm 0.00 in0.0 mm
04:12 PM 46.7°F8.2°C 10.9°F-11.7°C 23% 4.0 mph NNE6.4 kmh NNE 16.0 mph25.7 kmh 30.21 in1023.0 mb 0.00 in0.0 mm 0.00 in0.0 mm 0.00 in0.0 mm
04:10 PM 46.8°F8.2°C 10.0°F-12.2°C 22% 2.0 mph NE3.2 kmh NE 16.0 mph25.7 kmh 30.21 in1023.0 mb 0.00 in0.0 mm 0.00 in0.0 mm 0.00 in0.0 mm
04:08 PM 47.0°F8.3°C 10.1°F-12.2°C 22% 13.0 mph NW20.9 kmh NW 16.0 mph25.7 kmh 30.22 in1023.4 mb 0.00 in0.0 mm 0.00 in0.0 mm 0.00 in0.0 mm
04:06 PM 47.2°F8.4°C 12.3°F-10.9°C 24% 1.0 mph N1.6 kmh N 7.0 mph11.3 kmh 30.21 in1023.0 mb 0.00 in0.0 mm 0.00 in0.0 mm 0.00 in0.0 mm
04:04 PM 47.2°F8.4°C 11.3°F-11.5°C 23% 1.0 mph NW1.6 kmh NW 7.0 mph11.3 kmh 30.21 in1023.0 mb 0.00 in0.0 mm 0.00 in0.0 mm 0.00 in0.0 mm
04:02 PM 47.2°F8.4°C 9.3°F-12.6°C 21% 3.0 mph NW4.8 kmh NW 7.0 mph11.3 kmh 30.21 in1023.0 mb 0.00 in0.0 mm 0.00 in0.0 mm 0.00 in0.0 mm
04:00 PM 47.3°F8.5°C 10.4°F-12.0°C 22% 4.0 mph NW6.4 kmh NW 17.0 mph27.4 kmh 30.22 in1023.4 mb 0.00 in0.0 mm 0.00 in0.0 mm 0.00 in0.0 mm
03:58 PM 47.4°F8.6°C 9.4°F-12.6°C 21% 4.0 mph N6.4 kmh N 17.0 mph27.4 kmh 30.22 in1023.4 mb 0.00 in0.0 mm 0.00 in0.0 mm 0.00 in0.0 mm
03:56 PM 47.4°F8.6°C 11.5°F-11.4°C 23% 10.0 mph NW16.1 kmh NW 17.0 mph27.4 kmh 30.22 in1023.4 mb 0.00 in0.0 mm 0.00 in0.0 mm 0.00 in0.0 mm
03:54 PM 47.3°F8.5°C 9.4°F-12.6°C 21% Calm Calm 17.0 mph27.4 kmh 30.21 in1023.0 mb 0.00 in0.0 mm 0.00 in0.0 mm 0.00 in0.0 mm
03:52 PM 47.4°F8.6°C 9.4°F-12.6°C 21% 10.0 mph NNE16.1 kmh NNE 17.0 mph27.4 kmh 30.22 in1023.4 mb 0.00 in0.0 mm 0.00 in0.0 mm 0.00 in0.0 mm
03:50 PM 47.3°F8.5°C 9.4°F-12.6°C 21% 5.0 mph NW8.0 kmh NW 17.0 mph27.4 kmh 30.22 in1023.4 mb 0.00 in0.0 mm 0.00 in0.0 mm 0.00 in0.0 mm
03:48 PM 47.2°F8.4°C 11.3°F-11.5°C 23% 5.0 mph NW8.0 kmh NW 17.0 mph27.4 kmh 30.22 in1023.4 mb 0.00 in0.0 mm 0.00 in0.0 mm 0.00 in0.0 mm
03:46 PM 47.0°F8.3°C 10.1°F-12.2°C 22% 3.0 mph NNW4.8 kmh NNW 17.0 mph27.4 kmh 30.22 in1023.4 mb 0.00 in0.0 mm 0.00 in0.0 mm 0.00 in0.0 mm
03:44 PM 47.0°F8.3°C 11.1°F-11.6°C 23% 8.0 mph N12.9 kmh N 17.0 mph27.4 kmh 30.21 in1023.0 mb 0.00 in0.0 mm 0.00 in0.0 mm 0.00 in0.0 mm
03:42 PM 46.9°F8.3°C 10.1°F-12.2°C 22% 4.0 mph WNW6.4 kmh WNW 17.0 mph27.4 kmh 30.21 in1023.0 mb 0.00 in0.0 mm 0.00 in0.0 mm 0.00 in0.0 mm
03:40 PM 46.9°F8.3°C 10.1°F-12.2°C 22% 4.0 mph NW6.4 kmh NW 17.0 mph27.4 kmh 30.22 in1023.4 mb 0.00 in0.0 mm 0.00 in0.0 mm 0.00 in0.0 mm
03:38 PM 46.8°F8.2°C 7.9°F-13.4°C 20% 6.0 mph NNW9.7 kmh NNW 17.0 mph27.4 kmh 30.22 in1023.4 mb 0.00 in0.0 mm 0.00 in0.0 mm 0.00 in0.0 mm
03:36 PM 46.7°F8.2°C 9.9°F-12.3°C 22% 6.0 mph NNW9.7 kmh NNW 17.0 mph27.4 kmh 30.22 in1023.4 mb 0.00 in0.0 mm 0.00 in0.0 mm 0.00 in0.0 mm
03:34 PM 46.6°F8.1°C 7.7°F-13.5°C 20% 3.0 mph NW4.8 kmh NW 17.0 mph27.4 kmh 30.22 in1023.4 mb 0.00 in0.0 mm 0.00 in0.0 mm 0.00 in0.0 mm
03:32 PM 46.5°F8.1°C 7.6°F-13.6°C 20% 11.0 mph NNW17.7 kmh NNW 17.0 mph27.4 kmh 30.22 in1023.4 mb 0.00 in0.0 mm 0.00 in0.0 mm 0.00 in0.0 mm
03:30 PM 46.4°F8.0°C 7.5°F-13.6°C 20% 1.0 mph NNE1.6 kmh NNE 16.0 mph25.7 kmh 30.22 in1023.4 mb 0.00 in0.0 mm 0.00 in0.0 mm 0.00 in0.0 mm
03:28 PM 46.3°F7.9°C 8.5°F-13.1°C 21% 7.0 mph W11.3 kmh W 16.0 mph25.7 kmh 30.22 in1023.4 mb 0.00 in0.0 mm 0.00 in0.0 mm 0.00 in0.0 mm
03:26 PM 46.2°F7.9°C 7.4°F-13.7°C 20% 2.0 mph NW3.2 kmh NW 16.0 mph25.7 kmh 30.22 in1023.4 mb 0.00 in0.0 mm 0.00 in0.0 mm 0.00 in0.0 mm
03:24 PM 46.1°F7.8°C 7.3°F-13.7°C 20% 8.0 mph NW12.9 kmh NW 13.0 mph20.9 kmh 30.21 in1023.0 mb 0.00 in0.0 mm 0.00 in0.0 mm 0.00 in0.0 mm
03:22 PM 46.0°F7.8°C 7.2°F-13.8°C 20% Calm Calm 13.0 mph20.9 kmh 30.22 in1023.4 mb 0.00 in0.0 mm 0.00 in0.0 mm 0.00 in0.0 mm
03:20 PM 45.9°F7.7°C 7.1°F-13.8°C 20% 3.0 mph NW4.8 kmh NW 13.0 mph20.9 kmh 30.22 in1023.4 mb 0.00 in0.0 mm 0.00 in0.0 mm 0.00 in0.0 mm
03:18 PM 45.7°F7.6°C 6.9°F-13.9°C 20% 4.0 mph N6.4 kmh N 13.0 mph20.9 kmh 30.22 in1023.4 mb 0.00 in0.0 mm 0.00 in0.0 mm 0.00 in0.0 mm
03:16 PM 45.6°F7.6°C 6.9°F-13.9°C 20% 5.0 mph WNW8.0 kmh WNW 13.0 mph20.9 kmh 30.22 in1023.4 mb 0.00 in0.0 mm 0.00 in0.0 mm 0.00 in0.0 mm
03:14 PM 45.6°F7.6°C 7.9°F-13.4°C 21% 5.0 mph WNW8.0 kmh WNW 12.0 mph19.3 kmh 30.22 in1023.4 mb 0.00 in0.0 mm 0.00 in0.0 mm 0.00 in0.0 mm
03:12 PM 45.6°F7.6°C 5.7°F-14.6°C 19% 5.0 mph NNW8.0 kmh NNW 12.0 mph19.3 kmh 30.22 in1023.4 mb 0.00 in0.0 mm 0.00 in0.0 mm 0.00 in0.0 mm
03:10 PM 45.6°F7.6°C 6.9°F-13.9°C 20% 3.0 mph N4.8 kmh N 10.0 mph16.1 kmh 30.22 in1023.4 mb 0.00 in0.0 mm 0.00 in0.0 mm 0.00 in0.0 mm
03:08 PM 45.7°F7.6°C 6.9°F-13.9°C 20% 7.0 mph NNE11.3 kmh NNE 10.0 mph16.1 kmh 30.22 in1023.4 mb 0.00 in0.0 mm 0.00 in0.0 mm 0.00 in0.0 mm
03:06 PM 45.8°F7.7°C 8.1°F-13.3°C 21% 6.0 mph NNW9.7 kmh NNW 10.0 mph16.1 kmh 30.22 in1023.4 mb 0.00 in0.0 mm 0.00 in0.0 mm 0.00 in0.0 mm
03:04 PM 45.8°F7.7°C 8.1°F-13.3°C 21% 4.0 mph NW6.4 kmh NW 9.0 mph14.5 kmh 30.22 in1023.4 mb 0.00 in0.0 mm 0.00 in0.0 mm 0.00 in0.0 mm
03:02 PM 45.7°F7.6°C 6.9°F-13.9°C 20% Calm Calm 6.0 mph9.7 kmh 30.22 in1023.4 mb 0.00 in0.0 mm 0.00 in0.0 mm 0.00 in0.0 mm
03:00 PM 45.8°F7.7°C 8.1°F-13.3°C 21% 2.0 mph NNE3.2 kmh NNE 13.0 mph20.9 kmh 30.22 in1023.4 mb 0.00 in0.0 mm 0.00 in0.0 mm 0.00 in0.0 mm
02:58 PM 45.7°F7.6°C 8.0°F-13.3°C 21% 7.0 mph NW11.3 kmh NW 13.0 mph20.9 kmh 30.22 in1023.4 mb 0.00 in0.0 mm 0.00 in0.0 mm 0.00 in0.0 mm
02:56 PM 45.6°F7.6°C 7.9°F-13.4°C 21% Calm Calm 13.0 mph20.9 kmh 30.22 in1023.4 mb 0.00 in0.0 mm 0.00 in0.0 mm 0.00 in0.0 mm
02:54 PM 45.5°F7.5°C 5.7°F-14.6°C 19% 1.0 mph NE1.6 kmh NE 13.0 mph20.9 kmh 30.21 in1023.0 mb 0.00 in0.0 mm 0.00 in0.0 mm 0.00 in0.0 mm
02:52 PM 45.5°F7.5°C 6.8°F-14.0°C 20% 1.0 mph ENE1.6 kmh ENE 13.0 mph20.9 kmh 30.21 in1023.0 mb 0.00 in0.0 mm 0.00 in0.0 mm 0.00 in0.0 mm
02:50 PM 45.5°F7.5°C 6.8°F-14.0°C 20% Calm Calm 13.0 mph20.9 kmh 30.22 in1023.4 mb 0.00 in0.0 mm 0.00 in0.0 mm 0.00 in0.0 mm
02:48 PM 45.4°F7.4°C 7.8°F-13.4°C 21% 7.0 mph NW11.3 kmh NW 13.0 mph20.9 kmh 30.22 in1023.4 mb 0.00 in0.0 mm 0.00 in0.0 mm 0.00 in0.0 mm
02:46 PM 45.4°F7.4°C 5.6°F-14.7°C 19% 1.0 mph NW1.6 kmh NW 13.0 mph20.9 kmh 30.22 in1023.4 mb 0.00 in0.0 mm 0.00 in0.0 mm 0.00 in0.0 mm
02:44 PM 45.4°F7.4°C 6.7°F-14.1°C 20% 11.0 mph NW17.7 kmh NW 13.0 mph20.9 kmh 30.22 in1023.4 mb 0.00 in0.0 mm 0.00 in0.0 mm 0.00 in0.0 mm
02:42 PM 45.3°F7.4°C 6.6°F-14.1°C 20% 8.0 mph NW12.9 kmh NW 12.0 mph19.3 kmh 30.22 in1023.4 mb 0.00 in0.0 mm 0.00 in0.0 mm 0.00 in0.0 mm
02:40 PM 45.2°F7.3°C 7.6°F-13.6°C 21% 1.0 mph NW1.6 kmh NW 8.0 mph12.9 kmh 30.22 in1023.4 mb 0.00 in0.0 mm 0.00 in0.0 mm 0.00 in0.0 mm
02:38 PM 45.1°F7.3°C 6.4°F-14.2°C 20% 3.0 mph NW4.8 kmh NW 8.0 mph12.9 kmh 30.22 in1023.4 mb 0.00 in0.0 mm 0.00 in0.0 mm 0.00 in0.0 mm
02:36 PM 45.1°F7.3°C 8.5°F-13.1°C 22% Calm Calm 8.0 mph12.9 kmh 30.22 in1023.4 mb 0.00 in0.0 mm 0.00 in0.0 mm 0.00 in0.0 mm
02:34 PM 45.0°F7.2°C 8.5°F-13.1°C 22% 6.0 mph N9.7 kmh N 8.0 mph12.9 kmh 30.22 in1023.4 mb 0.00 in0.0 mm 0.00 in0.0 mm 0.00 in0.0 mm
02:32 PM 44.9°F7.2°C 6.3°F-14.3°C 20% 4.0 mph N6.4 kmh N 6.0 mph9.7 kmh 30.22 in1023.4 mb 0.00 in0.0 mm 0.00 in0.0 mm 0.00 in0.0 mm
02:30 PM 44.8°F7.1°C 7.3°F-13.7°C 21% 10.0 mph WNW16.1 kmh WNW 14.0 mph22.5 kmh 30.22 in1023.4 mb 0.00 in0.0 mm 0.00 in0.0 mm 0.00 in0.0 mm
02:28 PM 44.8°F7.1°C 6.2°F-14.3°C 20% 4.0 mph NNW6.4 kmh NNW 14.0 mph22.5 kmh 30.23 in1023.7 mb 0.00 in0.0 mm 0.00 in0.0 mm 0.00 in0.0 mm
02:26 PM 44.7°F7.1°C 8.2°F-13.2°C 22% 4.0 mph NW6.4 kmh NW 14.0 mph22.5 kmh 30.22 in1023.4 mb 0.00 in0.0 mm 0.00 in0.0 mm 0.00 in0.0 mm
02:24 PM 44.7°F7.1°C 7.2°F-13.8°C 21% 4.0 mph NW6.4 kmh NW 14.0 mph22.5 kmh 30.22 in1023.4 mb 0.00 in0.0 mm 0.00 in0.0 mm 0.00 in0.0 mm
02:22 PM 44.6°F7.0°C 6.0°F-14.4°C 20% 9.0 mph N14.5 kmh N 14.0 mph22.5 kmh 30.23 in1023.7 mb 0.00 in0.0 mm 0.00 in0.0 mm 0.00 in0.0 mm
02:20 PM 44.5°F6.9°C 7.0°F-13.9°C 21% 10.0 mph WNW16.1 kmh WNW 14.0 mph22.5 kmh 30.23 in1023.7 mb 0.00 in0.0 mm 0.00 in0.0 mm 0.00 in0.0 mm
02:18 PM 44.5°F6.9°C 7.0°F-13.9°C 21% 4.0 mph NNE6.4 kmh NNE 14.0 mph22.5 kmh 30.23 in1023.7 mb 0.00 in0.0 mm 0.00 in0.0 mm 0.00 in0.0 mm
02:16 PM 44.4°F6.9°C 8.0°F-13.3°C 22% 5.0 mph SSW8.0 kmh SSW 14.0 mph22.5 kmh 30.23 in1023.7 mb 0.00 in0.0 mm 0.00 in0.0 mm 0.00 in0.0 mm
02:14 PM 44.4°F6.9°C 6.9°F-13.9°C 21% 4.0 mph NNW6.4 kmh NNW 13.0 mph20.9 kmh 30.23 in1023.7 mb 0.00 in0.0 mm 0.00 in0.0 mm 0.00 in0.0 mm
02:12 PM 44.3°F6.8°C 6.8°F-14.0°C 21% 1.0 mph E1.6 kmh E 13.0 mph20.9 kmh 30.23 in1023.7 mb 0.00 in0.0 mm 0.00 in0.0 mm 0.00 in0.0 mm
02:10 PM 44.3°F6.8°C 7.9°F-13.4°C 22% Calm Calm 13.0 mph20.9 kmh 30.23 in1023.7 mb 0.00 in0.0 mm 0.00 in0.0 mm 0.00 in0.0 mm
02:08 PM 44.2°F6.8°C 8.8°F-12.9°C 23% 3.0 mph ENE4.8 kmh ENE 13.0 mph20.9 kmh 30.23 in1023.7 mb 0.00 in0.0 mm 0.00 in0.0 mm 0.00 in0.0 mm
02:06 PM 44.2°F6.8°C 7.8°F-13.4°C 22% 1.0 mph N1.6 kmh N 13.0 mph20.9 kmh 30.23 in1023.7 mb 0.00 in0.0 mm 0.00 in0.0 mm 0.00 in0.0 mm
02:04 PM 44.1°F6.7°C 7.7°F-13.5°C 22% 6.0 mph N9.7 kmh N 13.0 mph20.9 kmh 30.23 in1023.7 mb 0.00 in0.0 mm 0.00 in0.0 mm 0.00 in0.0 mm
02:02 PM 44.0°F6.7°C 8.6°F-13.0°C 23% 7.0 mph NNW11.3 kmh NNW 7.0 mph11.3 kmh 30.23 in1023.7 mb 0.00 in0.0 mm 0.00 in0.0 mm 0.00 in0.0 mm
02:00 PM 43.9°F6.6°C 8.5°F-13.1°C 23% Calm Calm 16.0 mph25.7 kmh 30.23 in1023.7 mb 0.00 in0.0 mm 0.00 in0.0 mm 0.00 in0.0 mm
01:58 PM 43.8°F6.6°C 8.4°F-13.1°C 23% Calm Calm 16.0 mph25.7 kmh 30.23 in1023.7 mb 0.00 in0.0 mm 0.00 in0.0 mm 0.00 in0.0 mm
01:56 PM 43.7°F6.5°C 8.3°F-13.2°C 23% 6.0 mph NW9.7 kmh NW 16.0 mph25.7 kmh 30.24 in1024.0 mb 0.00 in0.0 mm 0.00 in0.0 mm 0.00 in0.0 mm
01:54 PM 43.6°F6.4°C 8.3°F-13.2°C 23% 4.0 mph N6.4 kmh N 16.0 mph25.7 kmh 30.24 in1024.0 mb 0.00 in0.0 mm 0.00 in0.0 mm 0.00 in0.0 mm
01:52 PM 43.6°F6.4°C 7.3°F-13.7°C 22% 5.0 mph NNE8.0 kmh NNE 16.0 mph25.7 kmh 30.24 in1024.0 mb 0.00 in0.0 mm 0.00 in0.0 mm 0.00 in0.0 mm
01:50 PM 43.5°F6.4°C 6.2°F-14.3°C 21% Calm Calm 16.0 mph25.7 kmh 30.24 in1024.0 mb 0.00 in0.0 mm 0.00 in0.0 mm 0.00 in0.0 mm
01:48 PM 43.5°F6.4°C 7.2°F-13.8°C 22% 6.0 mph NNW9.7 kmh NNW 16.0 mph25.7 kmh 30.24 in1024.0 mb 0.00 in0.0 mm 0.00 in0.0 mm 0.00 in0.0 mm
01:46 PM 43.5°F6.4°C 6.2°F-14.3°C 21% 6.0 mph NNE9.7 kmh NNE 16.0 mph25.7 kmh 30.24 in1024.0 mb 0.00 in0.0 mm 0.00 in0.0 mm 0.00 in0.0 mm
01:44 PM 43.5°F6.4°C 6.2°F-14.3°C 21% 3.0 mph NE4.8 kmh NE 16.0 mph25.7 kmh 30.24 in1024.0 mb 0.00 in0.0 mm 0.00 in0.0 mm 0.00 in0.0 mm
01:42 PM 43.5°F6.4°C 7.2°F-13.8°C 22% Calm Calm 16.0 mph25.7 kmh 30.24 in1024.0 mb 0.00 in0.0 mm 0.00 in0.0 mm 0.00 in0.0 mm
01:40 PM 43.5°F6.4°C 6.2°F-14.3°C 21% 3.0 mph N4.8 kmh N 16.0 mph25.7 kmh 30.24 in1024.0 mb 0.00 in0.0 mm 0.00 in0.0 mm 0.00 in0.0 mm
01:38 PM 43.5°F6.4°C 6.2°F-14.3°C 21% 4.0 mph N6.4 kmh N 16.0 mph25.7 kmh 30.24 in1024.0 mb 0.00 in0.0 mm 0.00 in0.0 mm 0.00 in0.0 mm
01:36 PM 43.6°F6.4°C 7.3°F-13.7°C 22% 5.0 mph NNE8.0 kmh NNE 12.0 mph19.3 kmh 30.24 in1024.0 mb 0.00 in0.0 mm 0.00 in0.0 mm 0.00 in0.0 mm
01:34 PM 43.6°F6.4°C 6.3°F-14.3°C 21% 1.0 mph N1.6 kmh N 11.0 mph17.7 kmh 30.24 in1024.0 mb 0.00 in0.0 mm 0.00 in0.0 mm 0.00 in0.0 mm
01:32 PM 43.6°F6.4°C 6.3°F-14.3°C 21% 5.0 mph NW8.0 kmh NW 11.0 mph17.7 kmh 30.24 in1024.0 mb 0.00 in0.0 mm 0.00 in0.0 mm 0.00 in0.0 mm
01:30 PM 43.6°F6.4°C 7.3°F-13.7°C 22% 6.0 mph NNW9.7 kmh NNW 17.0 mph27.4 kmh 30.24 in1024.0 mb 0.00 in0.0 mm 0.00 in0.0 mm 0.00 in0.0 mm
01:28 PM 43.6°F6.4°C 6.3°F-14.3°C 21% 2.0 mph N3.2 kmh N 17.0 mph27.4 kmh 30.24 in1024.0 mb 0.00 in0.0 mm 0.00 in0.0 mm 0.00 in0.0 mm
01:26 PM 43.5°F6.4°C 6.2°F-14.3°C 21% 9.0 mph NW14.5 kmh NW 17.0 mph27.4 kmh 30.25 in1024.4 mb 0.00 in0.0 mm 0.00 in0.0 mm 0.00 in0.0 mm
01:24 PM 43.5°F6.4°C 7.2°F-13.8°C 22% 6.0 mph NNW9.7 kmh NNW 17.0 mph27.4 kmh 30.25 in1024.4 mb 0.00 in0.0 mm 0.00 in0.0 mm 0.00 in0.0 mm
01:22 PM 43.4°F6.3°C 7.1°F-13.8°C 22% 10.0 mph NNW16.1 kmh NNW 17.0 mph27.4 kmh 30.24 in1024.0 mb 0.00 in0.0 mm 0.00 in0.0 mm 0.00 in0.0 mm
01:20 PM 43.3°F6.3°C 8.0°F-13.3°C 23% 3.0 mph WNW4.8 kmh WNW 12.0 mph19.3 kmh 30.25 in1024.4 mb 0.00 in0.0 mm 0.00 in0.0 mm 0.00 in0.0 mm
01:18 PM 43.2°F6.2°C 11.5°F-11.4°C 27% 5.0 mph N8.0 kmh N 9.0 mph14.5 kmh 30.24 in1024.0 mb 0.00 in0.0 mm 0.00 in0.0 mm 0.00 in0.0 mm
01:16 PM 43.0°F6.1°C 10.5°F-11.9°C 26% 2.0 mph N3.2 kmh N 9.0 mph14.5 kmh 30.24 in1024.0 mb 0.00 in0.0 mm 0.00 in0.0 mm 0.00 in0.0 mm
01:14 PM 42.9°F6.1°C 11.2°F-11.6°C 27% Calm Calm 9.0 mph14.5 kmh 30.24 in1024.0 mb 0.00 in0.0 mm 0.00 in0.0 mm 0.00 in0.0 mm
01:12 PM 42.8°F6.0°C 9.4°F-12.6°C 25% 7.0 mph N11.3 kmh N 9.0 mph14.5 kmh 30.24 in1024.0 mb 0.00 in0.0 mm 0.00 in0.0 mm 0.00 in0.0 mm
01:10 PM 42.8°F6.0°C 8.5°F-13.1°C 24% 1.0 mph ENE1.6 kmh ENE 9.0 mph14.5 kmh 30.24 in1024.0 mb 0.00 in0.0 mm 0.00 in0.0 mm 0.00 in0.0 mm
01:08 PM 42.8°F6.0°C 10.3°F-12.1°C 26% Calm Calm 5.0 mph8.0 kmh 30.24 in1024.0 mb 0.00 in0.0 mm 0.00 in0.0 mm 0.00 in0.0 mm
01:06 PM 42.7°F5.9°C 10.2°F-12.1°C 26% 3.0 mph NW4.8 kmh NW 5.0 mph8.0 kmh 30.25 in1024.4 mb 0.00 in0.0 mm 0.00 in0.0 mm 0.00 in0.0 mm
01:04 PM 42.6°F5.9°C 9.3°F-12.6°C 25% Calm Calm 5.0 mph8.0 kmh 30.25 in1024.4 mb 0.00 in0.0 mm 0.00 in0.0 mm 0.00 in0.0 mm
01:02 PM 42.6°F5.9°C 8.4°F-13.1°C 24% Calm Calm 5.0 mph8.0 kmh 30.25 in1024.4 mb 0.00 in0.0 mm 0.00 in0.0 mm 0.00 in0.0 mm
01:00 PM 42.6°F5.9°C 8.4°F-13.1°C 24% Calm Calm -- 30.25 in1024.4 mb 0.00 in0.0 mm 0.00 in0.0 mm 0.00 in0.0 mm
12:58 PM 42.6°F5.9°C 9.3°F-12.6°C 25% 1.0 mph NW1.6 kmh NW 12.0 mph19.3 kmh 30.25 in1024.4 mb 0.00 in0.0 mm 0.00 in0.0 mm 0.00 in0.0 mm
12:56 PM 42.5°F5.8°C 9.2°F-12.7°C 25% 5.0 mph NW8.0 kmh NW 12.0 mph19.3 kmh 30.25 in1024.4 mb 0.00 in0.0 mm 0.00 in0.0 mm 0.00 in0.0 mm
12:54 PM 42.5°F5.8°C 10.1°F-12.2°C 26% 1.0 mph WNW1.6 kmh WNW 12.0 mph19.3 kmh 30.25 in1024.4 mb 0.00 in0.0 mm 0.00 in0.0 mm 0.00 in0.0 mm
12:52 PM 42.4°F5.8°C 9.1°F-12.7°C 25% Calm Calm 12.0 mph19.3 kmh 30.25 in1024.4 mb 0.00 in0.0 mm 0.00 in0.0 mm 0.00 in0.0 mm
12:50 PM 42.5°F5.8°C 8.3°F-13.2°C 24% Calm Calm 12.0 mph19.3 kmh 30.26 in1024.7 mb 0.00 in0.0 mm 0.00 in0.0 mm 0.00 in0.0 mm
12:48 PM 42.5°F5.8°C 9.2°F-12.7°C 25% 3.0 mph NNW4.8 kmh NNW 12.0 mph19.3 kmh 30.25 in1024.4 mb 0.00 in0.0 mm 0.00 in0.0 mm 0.00 in0.0 mm
12:46 PM 42.5°F5.8°C 9.2°F-12.7°C 25% 5.0 mph NW8.0 kmh NW 12.0 mph19.3 kmh 30.25 in1024.4 mb 0.00 in0.0 mm 0.00 in0.0 mm 0.00 in0.0 mm
12:44 PM 42.4°F5.8°C 9.1°F-12.7°C 25% 5.0 mph W8.0 kmh W 12.0 mph19.3 kmh 30.26 in1024.7 mb 0.00 in0.0 mm 0.00 in0.0 mm 0.00 in0.0 mm
12:42 PM 42.4°F5.8°C 10.8°F-11.8°C 27% Calm Calm 12.0 mph19.3 kmh 30.25 in1024.4 mb 0.00 in0.0 mm 0.00 in0.0 mm 0.00 in0.0 mm
12:40 PM 42.2°F5.7°C 9.8°F-12.3°C 26% 5.0 mph NNW8.0 kmh NNW 6.0 mph9.7 kmh 30.26 in1024.7 mb 0.00 in0.0 mm 0.00 in0.0 mm 0.00 in0.0 mm
12:38 PM 42.0°F5.6°C 9.6°F-12.4°C 26% Calm Calm 6.0 mph9.7 kmh 30.25 in1024.4 mb 0.00 in0.0 mm 0.00 in0.0 mm 0.00 in0.0 mm
12:36 PM 41.8°F5.4°C 11.1°F-11.6°C 28% 1.0 mph NW1.6 kmh NW 6.0 mph9.7 kmh 30.26 in1024.7 mb 0.00 in0.0 mm 0.00 in0.0 mm 0.00 in0.0 mm
12:34 PM 41.6°F5.3°C 10.1°F-12.2°C 27% 3.0 mph N4.8 kmh N 6.0 mph9.7 kmh 30.26 in1024.7 mb 0.00 in0.0 mm 0.00 in0.0 mm 0.00 in0.0 mm
12:32 PM 41.5°F5.3°C 7.4°F-13.7°C 24% 3.0 mph NNE4.8 kmh NNE 5.0 mph8.0 kmh 30.26 in1024.7 mb 0.00 in0.0 mm 0.00 in0.0 mm 0.00 in0.0 mm
12:30 PM 41.5°F5.3°C 8.3°F-13.2°C 25% 6.0 mph ENE9.7 kmh ENE 13.0 mph20.9 kmh 30.26 in1024.7 mb 0.00 in0.0 mm 0.00 in0.0 mm 0.00 in0.0 mm
12:28 PM 41.4°F5.2°C 8.2°F-13.2°C 25% 6.0 mph NNW9.7 kmh NNW 13.0 mph20.9 kmh 30.26 in1024.7 mb 0.00 in0.0 mm 0.00 in0.0 mm 0.00 in0.0 mm
12:26 PM 41.3°F5.2°C 9.9°F-12.3°C 27% 9.0 mph ENE14.5 kmh ENE 13.0 mph20.9 kmh 30.26 in1024.7 mb 0.00 in0.0 mm 0.00 in0.0 mm 0.00 in0.0 mm
12:24 PM 41.2°F5.1°C 9.8°F-12.3°C 27% 7.0 mph NNW11.3 kmh NNW 13.0 mph20.9 kmh 30.26 in1024.7 mb 0.00 in0.0 mm 0.00 in0.0 mm 0.00 in0.0 mm
12:22 PM 41.0°F5.0°C 9.6°F-12.4°C 27% 6.0 mph W9.7 kmh W 13.0 mph20.9 kmh 30.26 in1024.7 mb 0.00 in0.0 mm 0.00 in0.0 mm 0.00 in0.0 mm
12:20 PM 40.9°F4.9°C 9.5°F-12.5°C 27% 6.0 mph N9.7 kmh N 13.0 mph20.9 kmh 30.26 in1024.7 mb 0.00 in0.0 mm 0.00 in0.0 mm 0.00 in0.0 mm
12:18 PM 40.7°F4.8°C 9.3°F-12.6°C 27% 4.0 mph NNW6.4 kmh NNW 11.0 mph17.7 kmh 30.26 in1024.7 mb 0.00 in0.0 mm 0.00 in0.0 mm 0.00 in0.0 mm
12:16 PM 40.7°F4.8°C 9.3°F-12.6°C 27% 3.0 mph NNW4.8 kmh NNW 10.0 mph16.1 kmh 30.26 in1024.7 mb 0.00 in0.0 mm 0.00 in0.0 mm 0.00 in0.0 mm
12:14 PM 40.7°F4.8°C 10.2°F-12.1°C 28% 6.0 mph N9.7 kmh N 10.0 mph16.1 kmh 30.26 in1024.7 mb 0.00 in0.0 mm 0.00 in0.0 mm 0.00 in0.0 mm
12:12 PM 40.6°F4.8°C 9.3°F-12.6°C 27% 7.0 mph N11.3 kmh N 10.0 mph16.1 kmh 30.26 in1024.7 mb 0.00 in0.0 mm 0.00 in0.0 mm 0.00 in0.0 mm
12:10 PM 40.5°F4.7°C 10.0°F-12.2°C 28% 6.0 mph NE9.7 kmh NE 10.0 mph16.1 kmh 30.26 in1024.7 mb 0.00 in0.0 mm 0.00 in0.0 mm 0.00 in0.0 mm
12:08 PM 40.4°F4.7°C 9.1°F-12.7°C 27% 3.0 mph NE4.8 kmh NE 6.0 mph9.7 kmh 30.26 in1024.7 mb 0.00 in0.0 mm 0.00 in0.0 mm 0.00 in0.0 mm
12:06 PM 40.4°F4.7°C 9.1°F-12.7°C 27% Calm Calm 6.0 mph9.7 kmh 30.26 in1024.7 mb 0.00 in0.0 mm 0.00 in0.0 mm 0.00 in0.0 mm
12:04 PM 40.4°F4.7°C 9.1°F-12.7°C 27% Calm Calm 6.0 mph9.7 kmh 30.26 in1024.7 mb 0.00 in0.0 mm 0.00 in0.0 mm 0.00 in0.0 mm
12:02 PM 40.4°F4.7°C 8.2°F-13.2°C 26% 3.0 mph NE4.8 kmh NE 6.0 mph9.7 kmh 30.26 in1024.7 mb 0.00 in0.0 mm 0.00 in0.0 mm 0.00 in0.0 mm
12:00 PM 40.5°F4.7°C 9.2°F-12.7°C 27% 2.0 mph NE3.2 kmh NE 12.0 mph19.3 kmh 30.27 in1025.1 mb 0.00 in0.0 mm 0.00 in0.0 mm 0.00 in0.0 mm
11:58 AM 40.4°F4.7°C 9.1°F-12.7°C 27% 4.0 mph NNE6.4 kmh NNE 12.0 mph19.3 kmh 30.27 in1025.1 mb 0.00 in0.0 mm 0.00 in0.0 mm 0.00 in0.0 mm
11:56 AM 40.2°F4.6°C 10.5°F-11.9°C 29% 11.0 mph NNW17.7 kmh NNW 12.0 mph19.3 kmh 30.27 in1025.1 mb 0.00 in0.0 mm 0.00 in0.0 mm 0.00 in0.0 mm
11:54 AM 40.1°F4.5°C 10.4°F-12.0°C 29% 6.0 mph NNW9.7 kmh NNW 12.0 mph19.3 kmh 30.27 in1025.1 mb 0.00 in0.0 mm 0.00 in0.0 mm 0.00 in0.0 mm
11:52 AM 40.0°F4.4°C 8.7°F-12.9°C 27% Calm Calm 12.0 mph19.3 kmh 30.26 in1024.7 mb 0.00 in0.0 mm 0.00 in0.0 mm 0.00 in0.0 mm
11:50 AM 40.1°F4.5°C 8.8°F-12.9°C 27% 1.0 mph NNE1.6 kmh NNE 12.0 mph19.3 kmh 30.27 in1025.1 mb 0.00 in0.0 mm 0.00 in0.0 mm 0.00 in0.0 mm
11:48 AM 40.1°F4.5°C 9.6°F-12.4°C 28% 5.0 mph NW8.0 kmh NW 12.0 mph19.3 kmh 30.27 in1025.1 mb 0.00 in0.0 mm 0.00 in0.0 mm 0.00 in0.0 mm
11:46 AM 40.1°F4.5°C 8.8°F-12.9°C 27% 5.0 mph NE8.0 kmh NE 12.0 mph19.3 kmh 30.26 in1024.7 mb 0.00 in0.0 mm 0.00 in0.0 mm 0.00 in0.0 mm
11:44 AM 40.1°F4.5°C 9.6°F-12.4°C 28% 3.0 mph NE4.8 kmh NE 12.0 mph19.3 kmh 30.27 in1025.1 mb 0.00 in0.0 mm 0.00 in0.0 mm 0.00 in0.0 mm
11:42 AM 40.0°F4.4°C 9.5°F-12.5°C 28% 6.0 mph NNE9.7 kmh NNE 12.0 mph19.3 kmh 30.27 in1025.1 mb 0.00 in0.0 mm 0.00 in0.0 mm 0.00 in0.0 mm
11:40 AM 39.9°F4.4°C 9.5°F-12.5°C 28% 6.0 mph N9.7 kmh N 12.0 mph19.3 kmh 30.27 in1025.1 mb 0.00 in0.0 mm 0.00 in0.0 mm 0.00 in0.0 mm
11:38 AM 39.9°F4.4°C 8.7°F-12.9°C 27% 5.0 mph N8.0 kmh N 11.0 mph17.7 kmh 30.27 in1025.1 mb 0.00 in0.0 mm 0.00 in0.0 mm 0.00 in0.0 mm
11:36 AM 39.9°F4.4°C 8.7°F-12.9°C 27% 6.0 mph NW9.7 kmh NW 11.0 mph17.7 kmh 30.26 in1024.7 mb 0.00 in0.0 mm 0.00 in0.0 mm 0.00 in0.0 mm
11:34 AM 39.9°F4.4°C 9.5°F-12.5°C 28% 7.0 mph N11.3 kmh N 7.0 mph11.3 kmh 30.27 in1025.1 mb 0.00 in0.0 mm 0.00 in0.0 mm 0.00 in0.0 mm
11:32 AM 39.8°F4.3°C 8.6°F-13.0°C 27% 1.0 mph NE1.6 kmh NE 7.0 mph11.3 kmh 30.27 in1025.1 mb 0.00 in0.0 mm 0.00 in0.0 mm 0.00 in0.0 mm
11:30 AM 39.8°F4.3°C 10.2°F-12.1°C 29% 6.0 mph NW9.7 kmh NW 13.0 mph20.9 kmh 30.27 in1025.1 mb 0.00 in0.0 mm 0.00 in0.0 mm 0.00 in0.0 mm
11:28 AM 39.8°F4.3°C 9.4°F-12.6°C 28% 4.0 mph N6.4 kmh N 13.0 mph20.9 kmh 30.27 in1025.1 mb 0.00 in0.0 mm 0.00 in0.0 mm 0.00 in0.0 mm
11:26 AM 39.8°F4.3°C 9.4°F-12.6°C 28% 2.0 mph NE3.2 kmh NE 13.0 mph20.9 kmh 30.26 in1024.7 mb 0.00 in0.0 mm 0.00 in0.0 mm 0.00 in0.0 mm
11:24 AM 39.8°F4.3°C 10.2°F-12.1°C 29% 6.0 mph N9.7 kmh N 13.0 mph20.9 kmh 30.27 in1025.1 mb 0.00 in0.0 mm 0.00 in0.0 mm 0.00 in0.0 mm
11:22 AM 39.7°F4.3°C 10.8°F-11.8°C 30% 2.0 mph NE3.2 kmh NE 13.0 mph20.9 kmh 30.26 in1024.7 mb 0.00 in0.0 mm 0.00 in0.0 mm 0.00 in0.0 mm
11:20 AM 39.8°F4.3°C 9.4°F-12.6°C 28% 3.0 mph NNE4.8 kmh NNE 13.0 mph20.9 kmh 30.27 in1025.1 mb 0.00 in0.0 mm 0.00 in0.0 mm 0.00 in0.0 mm
11:18 AM 39.8°F4.3°C 10.2°F-12.1°C 29% 4.0 mph NW6.4 kmh NW 13.0 mph20.9 kmh 30.27 in1025.1 mb 0.00 in0.0 mm 0.00 in0.0 mm 0.00 in0.0 mm
11:16 AM 39.7°F4.3°C 10.8°F-11.8°C 30% 7.0 mph N11.3 kmh N 13.0 mph20.9 kmh 30.27 in1025.1 mb 0.00 in0.0 mm 0.00 in0.0 mm 0.00 in0.0 mm
11:14 AM 39.6°F4.2°C 10.7°F-11.8°C 30% 4.0 mph NW6.4 kmh NW 7.0 mph11.3 kmh 30.27 in1025.1 mb 0.00 in0.0 mm 0.00 in0.0 mm 0.00 in0.0 mm
11:12 AM 39.5°F4.2°C 9.9°F-12.3°C 29% Calm Calm 6.0 mph9.7 kmh 30.27 in1025.1 mb 0.00 in0.0 mm 0.00 in0.0 mm 0.00 in0.0 mm
11:10 AM 39.5°F4.2°C 9.1°F-12.7°C 28% Calm Calm 6.0 mph9.7 kmh 30.27 in1025.1 mb 0.00 in0.0 mm 0.00 in0.0 mm 0.00 in0.0 mm
11:08 AM 39.4°F4.1°C 9.8°F-12.3°C 29% Calm Calm 6.0 mph9.7 kmh 30.27 in1025.1 mb 0.00 in0.0 mm 0.00 in0.0 mm 0.00 in0.0 mm
11:06 AM 39.3°F4.1°C 11.2°F-11.6°C 31% 1.0 mph N1.6 kmh N 6.0 mph9.7 kmh 30.27 in1025.1 mb 0.00 in0.0 mm 0.00 in0.0 mm 0.00 in0.0 mm
11:04 AM 39.1°F3.9°C 11.0°F-11.7°C 31% 5.0 mph N8.0 kmh N 6.0 mph9.7 kmh 30.27 in1025.1 mb 0.00 in0.0 mm 0.00 in0.0 mm 0.00 in0.0 mm
11:02 AM 39.0°F3.9°C 10.2°F-12.1°C 30% 2.0 mph NE3.2 kmh NE 6.0 mph9.7 kmh 30.27 in1025.1 mb 0.00 in0.0 mm 0.00 in0.0 mm 0.00 in0.0 mm
11:00 AM 38.9°F3.8°C 9.4°F-12.6°C 29% 6.0 mph NNE9.7 kmh NNE 17.0 mph27.4 kmh 30.27 in1025.1 mb 0.00 in0.0 mm 0.00 in0.0 mm 0.00 in0.0 mm
10:58 AM 38.9°F3.8°C 10.1°F-12.2°C 30% 5.0 mph NE8.0 kmh NE 17.0 mph27.4 kmh 30.27 in1025.1 mb 0.00 in0.0 mm 0.00 in0.0 mm 0.00 in0.0 mm
10:56 AM 38.8°F3.8°C 9.3°F-12.6°C 29% 3.0 mph NE4.8 kmh NE 17.0 mph27.4 kmh 30.27 in1025.1 mb 0.00 in0.0 mm 0.00 in0.0 mm 0.00 in0.0 mm
10:54 AM 38.7°F3.7°C 9.2°F-12.7°C 29% 4.0 mph NE6.4 kmh NE 17.0 mph27.4 kmh 30.27 in1025.1 mb 0.00 in0.0 mm 0.00 in0.0 mm 0.00 in0.0 mm
10:52 AM 38.7°F3.7°C 9.2°F-12.7°C 29% 3.0 mph N4.8 kmh N 17.0 mph27.4 kmh 30.27 in1025.1 mb 0.00 in0.0 mm 0.00 in0.0 mm 0.00 in0.0 mm
10:50 AM 38.6°F3.7°C 9.1°F-12.7°C 29% 4.0 mph N6.4 kmh N 17.0 mph27.4 kmh 30.27 in1025.1 mb 0.00 in0.0 mm 0.00 in0.0 mm 0.00 in0.0 mm
10:48 AM 38.5°F3.6°C 9.0°F-12.8°C 29% 5.0 mph N8.0 kmh N 17.0 mph27.4 kmh 30.27 in1025.1 mb 0.00 in0.0 mm 0.00 in0.0 mm 0.00 in0.0 mm
10:46 AM 38.5°F3.6°C 8.2°F-13.2°C 28% 6.0 mph NW9.7 kmh NW 17.0 mph27.4 kmh 30.27 in1025.1 mb 0.00 in0.0 mm 0.00 in0.0 mm 0.00 in0.0 mm
10:44 AM 38.5°F3.6°C 8.2°F-13.2°C 28% 2.0 mph NE3.2 kmh NE 17.0 mph27.4 kmh 30.27 in1025.1 mb 0.00 in0.0 mm 0.00 in0.0 mm 0.00 in0.0 mm
10:42 AM 38.5°F3.6°C 8.2°F-13.2°C 28% 6.0 mph N9.7 kmh N 17.0 mph27.4 kmh 30.27 in1025.1 mb 0.00 in0.0 mm 0.00 in0.0 mm 0.00 in0.0 mm
10:40 AM 38.6°F3.7°C 8.3°F-13.2°C 28% 5.0 mph NE8.0 kmh NE 17.0 mph27.4 kmh 30.26 in1024.7 mb 0.00 in0.0 mm 0.00 in0.0 mm 0.00 in0.0 mm
10:38 AM 38.6°F3.7°C 8.3°F-13.2°C 28% 17.0 mph NW27.4 kmh NW 17.0 mph27.4 kmh 30.27 in1025.1 mb 0.00 in0.0 mm 0.00 in0.0 mm 0.00 in0.0 mm
10:36 AM 38.6°F3.7°C 9.9°F-12.3°C 30% 6.0 mph NW9.7 kmh NW 14.0 mph22.5 kmh 30.26 in1024.7 mb 0.00 in0.0 mm 0.00 in0.0 mm 0.00 in0.0 mm
10:34 AM 38.5°F3.6°C 9.8°F-12.3°C 30% 7.0 mph NW11.3 kmh NW 11.0 mph17.7 kmh 30.26 in1024.7 mb 0.00 in0.0 mm 0.00 in0.0 mm 0.00 in0.0 mm
10:32 AM 38.4°F3.6°C 9.7°F-12.4°C 30% 5.0 mph NNE8.0 kmh NNE 9.0 mph14.5 kmh 30.26 in1024.7 mb 0.00 in0.0 mm 0.00 in0.0 mm 0.00 in0.0 mm
10:30 AM 38.3°F3.5°C 10.3°F-12.1°C 31% 4.0 mph NE6.4 kmh NE 16.0 mph25.7 kmh 30.26 in1024.7 mb 0.00 in0.0 mm 0.00 in0.0 mm 0.00 in0.0 mm
10:28 AM 38.2°F3.4°C 10.2°F-12.1°C 31% 6.0 mph NNE9.7 kmh NNE 16.0 mph25.7 kmh 30.26 in1024.7 mb 0.00 in0.0 mm 0.00 in0.0 mm 0.00 in0.0 mm
10:26 AM 38.0°F3.3°C 10.1°F-12.2°C 31% 1.0 mph NE1.6 kmh NE 16.0 mph25.7 kmh 30.26 in1024.7 mb 0.00 in0.0 mm 0.00 in0.0 mm 0.00 in0.0 mm
10:24 AM 38.0°F3.3°C 9.3°F-12.6°C 30% 4.0 mph NE6.4 kmh NE 16.0 mph25.7 kmh 30.26 in1024.7 mb 0.00 in0.0 mm 0.00 in0.0 mm 0.00 in0.0 mm
10:22 AM 37.9°F3.3°C 10.0°F-12.2°C 31% 5.0 mph NW8.0 kmh NW 16.0 mph25.7 kmh 30.26 in1024.7 mb 0.00 in0.0 mm 0.00 in0.0 mm 0.00 in0.0 mm
10:20 AM 37.8°F3.2°C 9.2°F-12.7°C 30% Calm Calm 16.0 mph25.7 kmh 30.26 in1024.7 mb 0.00 in0.0 mm 0.00 in0.0 mm 0.00 in0.0 mm
10:18 AM 37.8°F3.2°C 9.9°F-12.3°C 31% 7.0 mph NE11.3 kmh NE 16.0 mph25.7 kmh 30.26 in1024.7 mb 0.00 in0.0 mm 0.00 in0.0 mm 0.00 in0.0 mm
10:16 AM 37.8°F3.2°C 9.2°F-12.7°C 30% 11.0 mph W17.7 kmh W 16.0 mph25.7 kmh 30.26 in1024.7 mb 0.00 in0.0 mm 0.00 in0.0 mm 0.00 in0.0 mm
10:14 AM 37.7°F3.2°C 9.8°F-12.3°C 31% 9.0 mph NE14.5 kmh NE 16.0 mph25.7 kmh 30.25 in1024.4 mb 0.00 in0.0 mm 0.00 in0.0 mm 0.00 in0.0 mm
10:12 AM 37.6°F3.1°C 9.0°F-12.8°C 30% 1.0 mph NE1.6 kmh NE 16.0 mph25.7 kmh 30.25 in1024.4 mb 0.00 in0.0 mm 0.00 in0.0 mm 0.00 in0.0 mm
10:10 AM 37.6°F3.1°C 8.2°F-13.2°C 29% 3.0 mph NE4.8 kmh NE 16.0 mph25.7 kmh 30.25 in1024.4 mb 0.00 in0.0 mm 0.00 in0.0 mm 0.00 in0.0 mm
10:08 AM 37.6°F3.1°C 7.5°F-13.6°C 28% 2.0 mph E3.2 kmh E 16.0 mph25.7 kmh 30.25 in1024.4 mb 0.00 in0.0 mm 0.00 in0.0 mm 0.00 in0.0 mm
10:06 AM 37.7°F3.2°C 7.6°F-13.6°C 28% 7.0 mph NE11.3 kmh NE 16.0 mph25.7 kmh 30.25 in1024.4 mb 0.00 in0.0 mm 0.00 in0.0 mm 0.00 in0.0 mm
10:04 AM 37.7°F3.2°C 9.8°F-12.3°C 31% 4.0 mph ENE6.4 kmh ENE 11.0 mph17.7 kmh 30.25 in1024.4 mb 0.00 in0.0 mm 0.00 in0.0 mm 0.00 in0.0 mm
10:02 AM 37.7°F3.2°C 9.8°F-12.3°C 31% 7.0 mph N11.3 kmh N 11.0 mph17.7 kmh 30.25 in1024.4 mb 0.00 in0.0 mm 0.00 in0.0 mm 0.00 in0.0 mm
10:00 AM 37.7°F3.2°C 9.8°F-12.3°C 31% 3.0 mph NNW4.8 kmh NNW 14.0 mph22.5 kmh 30.25 in1024.4 mb 0.00 in0.0 mm 0.00 in0.0 mm 0.00 in0.0 mm
09:58 AM 37.6°F3.1°C 10.4°F-12.0°C 32% 6.0 mph NNE9.7 kmh NNE 14.0 mph22.5 kmh 30.25 in1024.4 mb 0.00 in0.0 mm 0.00 in0.0 mm 0.00 in0.0 mm
09:56 AM 37.5°F3.1°C 9.6°F-12.4°C 31% 3.0 mph ENE4.8 kmh ENE 14.0 mph22.5 kmh 30.25 in1024.4 mb 0.00 in0.0 mm 0.00 in0.0 mm 0.00 in0.0 mm
09:54 AM 37.4°F3.0°C 9.5°F-12.5°C 31% 2.0 mph NE3.2 kmh NE 14.0 mph22.5 kmh 30.25 in1024.4 mb 0.00 in0.0 mm 0.00 in0.0 mm 0.00 in0.0 mm
09:52 AM 37.3°F2.9°C 10.2°F-12.1°C 32% 2.0 mph NE3.2 kmh NE 14.0 mph22.5 kmh 30.25 in1024.4 mb 0.00 in0.0 mm 0.00 in0.0 mm 0.00 in0.0 mm
09:50 AM 37.2°F2.9°C 9.4°F-12.6°C 31% 4.0 mph NE6.4 kmh NE 14.0 mph22.5 kmh 30.25 in1024.4 mb 0.00 in0.0 mm 0.00 in0.0 mm 0.00 in0.0 mm
09:48 AM 37.2°F2.9°C 10.1°F-12.2°C 32% 3.0 mph NE4.8 kmh NE 14.0 mph22.5 kmh 30.25 in1024.4 mb 0.00 in0.0 mm 0.00 in0.0 mm 0.00 in0.0 mm
09:46 AM 37.1°F2.8°C 10.0°F-12.2°C 32% 3.0 mph N4.8 kmh N 14.0 mph22.5 kmh 30.25 in1024.4 mb 0.00 in0.0 mm 0.00 in0.0 mm 0.00 in0.0 mm
09:44 AM 37.0°F2.8°C 9.9°F-12.3°C 32% 4.0 mph NNE6.4 kmh NNE 11.0 mph17.7 kmh 30.25 in1024.4 mb 0.00 in0.0 mm 0.00 in0.0 mm 0.00 in0.0 mm
09:42 AM 36.9°F2.7°C 9.8°F-12.3°C 32% Calm Calm 11.0 mph17.7 kmh 30.25 in1024.4 mb 0.00 in0.0 mm 0.00 in0.0 mm 0.00 in0.0 mm
09:40 AM 36.8°F2.7°C 9.7°F-12.4°C 32% 3.0 mph NE4.8 kmh NE 11.0 mph17.7 kmh 30.25 in1024.4 mb 0.00 in0.0 mm 0.00 in0.0 mm 0.00 in0.0 mm
09:38 AM 36.7°F2.6°C 8.9°F-12.8°C 31% 7.0 mph NW11.3 kmh NW 10.0 mph16.1 kmh 30.25 in1024.4 mb 0.00 in0.0 mm 0.00 in0.0 mm 0.00 in0.0 mm
09:36 AM 36.6°F2.6°C 10.2°F-12.1°C 33% 4.0 mph ENE6.4 kmh ENE 7.0 mph11.3 kmh 30.24 in1024.0 mb 0.00 in0.0 mm 0.00 in0.0 mm 0.00 in0.0 mm
09:34 AM 36.5°F2.5°C 9.5°F-12.5°C 32% 3.0 mph NNW4.8 kmh NNW 7.0 mph11.3 kmh 30.24 in1024.0 mb 0.00 in0.0 mm 0.00 in0.0 mm 0.00 in0.0 mm
09:32 AM 36.4°F2.4°C 9.4°F-12.6°C 32% Calm Calm 7.0 mph11.3 kmh 30.24 in1024.0 mb 0.00 in0.0 mm 0.00 in0.0 mm 0.00 in0.0 mm
09:30 AM 36.2°F2.3°C 9.9°F-12.3°C 33% 6.0 mph N9.7 kmh N 15.0 mph24.1 kmh 30.25 in1024.4 mb 0.00 in0.0 mm 0.00 in0.0 mm 0.00 in0.0 mm
09:28 AM 36.1°F2.3°C 9.1°F-12.7°C 32% 3.0 mph N4.8 kmh N 15.0 mph24.1 kmh 30.25 in1024.4 mb 0.00 in0.0 mm 0.00 in0.0 mm 0.00 in0.0 mm
09:26 AM 36.1°F2.3°C 9.1°F-12.7°C 32% 3.0 mph ENE4.8 kmh ENE 15.0 mph24.1 kmh 30.24 in1024.0 mb 0.00 in0.0 mm 0.00 in0.0 mm 0.00 in0.0 mm
09:24 AM 36.1°F2.3°C 9.1°F-12.7°C 32% 3.0 mph N4.8 kmh N 15.0 mph24.1 kmh 30.24 in1024.0 mb 0.00 in0.0 mm 0.00 in0.0 mm 0.00 in0.0 mm
09:22 AM 36.0°F2.2°C 9.0°F-12.8°C 32% 7.0 mph N11.3 kmh N 15.0 mph24.1 kmh 30.24 in1024.0 mb 0.00 in0.0 mm 0.00 in0.0 mm 0.00 in0.0 mm
09:20 AM 36.0°F2.2°C 9.0°F-12.8°C 32% 3.0 mph NE4.8 kmh NE 14.0 mph22.5 kmh 30.24 in1024.0 mb 0.00 in0.0 mm 0.00 in0.0 mm 0.00 in0.0 mm
09:18 AM 35.9°F2.2°C 9.6°F-12.4°C 33% 3.0 mph E4.8 kmh E 14.0 mph22.5 kmh 30.24 in1024.0 mb 0.00 in0.0 mm 0.00 in0.0 mm 0.00 in0.0 mm
09:16 AM 35.8°F2.1°C 9.5°F-12.5°C 33% 3.0 mph NE4.8 kmh NE 14.0 mph22.5 kmh 30.24 in1024.0 mb 0.00 in0.0 mm 0.00 in0.0 mm 0.00 in0.0 mm
09:14 AM 35.7°F2.1°C 9.4°F-12.6°C 33% 3.0 mph NE4.8 kmh NE 14.0 mph22.5 kmh 30.24 in1024.0 mb 0.00 in0.0 mm 0.00 in0.0 mm 0.00 in0.0 mm
09:12 AM 35.7°F2.1°C 10.1°F-12.2°C 34% 7.0 mph N11.3 kmh N 14.0 mph22.5 kmh 30.24 in1024.0 mb 0.00 in0.0 mm 0.00 in0.0 mm 0.00 in0.0 mm
09:10 AM 35.5°F1.9°C 9.9°F-12.3°C 34% 1.0 mph ENE1.6 kmh ENE 12.0 mph19.3 kmh 30.24 in1024.0 mb 0.00 in0.0 mm 0.00 in0.0 mm 0.00 in0.0 mm
09:08 AM 35.4°F1.9°C 9.8°F-12.3°C 34% 6.0 mph NE9.7 kmh NE 12.0 mph19.3 kmh 30.24 in1024.0 mb 0.00 in0.0 mm 0.00 in0.0 mm 0.00 in0.0 mm
09:06 AM 35.3°F1.8°C 10.4°F-12.0°C 35% 1.0 mph ESE1.6 kmh ESE 12.0 mph19.3 kmh 30.24 in1024.0 mb 0.00 in0.0 mm 0.00 in0.0 mm 0.00 in0.0 mm
09:04 AM 35.2°F1.8°C 9.7°F-12.4°C 34% 4.0 mph NNE6.4 kmh NNE 12.0 mph19.3 kmh 30.24 in1024.0 mb 0.00 in0.0 mm 0.00 in0.0 mm 0.00 in0.0 mm
09:02 AM 35.2°F1.8°C 10.3°F-12.1°C 35% Calm Calm 2.0 mph3.2 kmh 30.24 in1024.0 mb 0.00 in0.0 mm 0.00 in0.0 mm 0.00 in0.0 mm
09:00 AM 35.1°F1.7°C 10.2°F-12.1°C 35% Calm Calm 13.0 mph20.9 kmh 30.24 in1024.0 mb 0.00 in0.0 mm 0.00 in0.0 mm 0.00 in0.0 mm
08:58 AM 35.0°F1.7°C 10.8°F-11.8°C 36% 3.0 mph N4.8 kmh N 13.0 mph20.9 kmh 30.24 in1024.0 mb 0.00 in0.0 mm 0.00 in0.0 mm 0.00 in0.0 mm
08:56 AM 34.8°F1.6°C 10.6°F-11.9°C 36% 4.0 mph NW6.4 kmh NW 13.0 mph20.9 kmh 30.24 in1024.0 mb 0.00 in0.0 mm 0.00 in0.0 mm 0.00 in0.0 mm
08:54 AM 34.7°F1.5°C 10.5°F-11.9°C 36% 1.0 mph E1.6 kmh E 13.0 mph20.9 kmh 30.24 in1024.0 mb 0.00 in0.0 mm 0.00 in0.0 mm 0.00 in0.0 mm
08:52 AM 34.6°F1.4°C 10.4°F-12.0°C 36% Calm Calm 13.0 mph20.9 kmh 30.23 in1023.7 mb 0.00 in0.0 mm 0.00 in0.0 mm 0.00 in0.0 mm
08:50 AM 34.6°F1.4°C 10.4°F-12.0°C 36% 2.0 mph NNE3.2 kmh NNE 13.0 mph20.9 kmh 30.24 in1024.0 mb 0.00 in0.0 mm 0.00 in0.0 mm 0.00 in0.0 mm
08:48 AM 34.5°F1.4°C 10.3°F-12.1°C 36% 2.0 mph N3.2 kmh N 13.0 mph20.9 kmh 30.24 in1024.0 mb 0.00 in0.0 mm 0.00 in0.0 mm 0.00 in0.0 mm
08:46 AM 34.4°F1.3°C 10.8°F-11.8°C 37% 4.0 mph NE6.4 kmh NE 10.0 mph16.1 kmh 30.24 in1024.0 mb 0.00 in0.0 mm 0.00 in0.0 mm 0.00 in0.0 mm
08:44 AM 34.3°F1.3°C 10.8°F-11.8°C 37% 9.0 mph NW14.5 kmh NW 10.0 mph16.1 kmh 30.24 in1024.0 mb 0.00 in0.0 mm 0.00 in0.0 mm 0.00 in0.0 mm
08:42 AM 34.2°F1.2°C 10.7°F-11.8°C 37% 4.0 mph NW6.4 kmh NW 10.0 mph16.1 kmh 30.24 in1024.0 mb 0.00 in0.0 mm 0.00 in0.0 mm 0.00 in0.0 mm
08:40 AM 34.1°F1.2°C 10.6°F-11.9°C 37% Calm Calm 6.0 mph9.7 kmh 30.23 in1023.7 mb 0.00 in0.0 mm 0.00 in0.0 mm 0.00 in0.0 mm
08:38 AM 34.1°F1.2°C 10.6°F-11.9°C 37% Calm Calm 5.0 mph8.0 kmh 30.24 in1024.0 mb 0.00 in0.0 mm 0.00 in0.0 mm 0.00 in0.0 mm
08:36 AM 34.0°F1.1°C 11.1°F-11.6°C 38% 1.0 mph NE1.6 kmh NE 5.0 mph8.0 kmh 30.23 in1023.7 mb 0.00 in0.0 mm 0.00 in0.0 mm 0.00 in0.0 mm
08:12 AM 33.0°F0.6°C 10.8°F-11.8°C 39% Calm Calm 9.0 mph14.5 kmh 30.22 in1023.4 mb 0.00 in0.0 mm 0.00 in0.0 mm 0.00 in0.0 mm
08:10 AM 32.9°F0.5°C 10.1°F-12.2°C 38% 4.0 mph N6.4 kmh N 9.0 mph14.5 kmh 30.23 in1023.7 mb 0.00 in0.0 mm 0.00 in0.0 mm 0.00 in0.0 mm
08:08 AM 32.8°F0.4°C 10.6°F-11.9°C 39% 9.0 mph NW14.5 kmh NW 9.0 mph14.5 kmh 30.23 in1023.7 mb 0.00 in0.0 mm 0.00 in0.0 mm 0.00 in0.0 mm
08:06 AM 32.6°F0.3°C 11.0°F-11.7°C 40% 2.0 mph NE3.2 kmh NE 7.0 mph11.3 kmh 30.22 in1023.4 mb 0.00 in0.0 mm 0.00 in0.0 mm 0.00 in0.0 mm
08:04 AM 32.6°F0.3°C 11.0°F-11.7°C 40% 4.0 mph NW6.4 kmh NW 7.0 mph11.3 kmh 30.22 in1023.4 mb 0.00 in0.0 mm 0.00 in0.0 mm 0.00 in0.0 mm
08:02 AM 32.5°F0.3°C 10.9°F-11.7°C 40% 4.0 mph N6.4 kmh N 4.0 mph6.4 kmh 30.22 in1023.4 mb 0.00 in0.0 mm 0.00 in0.0 mm 0.00 in0.0 mm
08:00 AM 32.3°F0.2°C 10.7°F-11.8°C 40% 4.0 mph N6.4 kmh N 9.0 mph14.5 kmh 30.22 in1023.4 mb 0.00 in0.0 mm 0.00 in0.0 mm 0.00 in0.0 mm
07:58 AM 32.2°F0.1°C 10.6°F-11.9°C 40% 6.0 mph NNW9.7 kmh NNW 9.0 mph14.5 kmh 30.22 in1023.4 mb 0.00 in0.0 mm 0.00 in0.0 mm 0.00 in0.0 mm
07:56 AM 32.1°F0.1°C 10.0°F-12.2°C 39% Calm Calm 9.0 mph14.5 kmh 30.22 in1023.4 mb 0.00 in0.0 mm 0.00 in0.0 mm 0.00 in0.0 mm
07:54 AM 32.0°F0.0°C 10.4°F-12.0°C 40% 3.0 mph NW4.8 kmh NW 9.0 mph14.5 kmh 30.21 in1023.0 mb 0.00 in0.0 mm 0.00 in0.0 mm 0.00 in0.0 mm
07:52 AM 31.9°F-0.1°C 10.3°F-12.1°C 40% 4.0 mph N6.4 kmh N 4.0 mph6.4 kmh 30.22 in1023.4 mb 0.00 in0.0 mm 0.00 in0.0 mm 0.00 in0.0 mm
07:50 AM 31.8°F-0.1°C 10.2°F-12.1°C 40% Calm Calm 1.0 mph1.6 kmh 30.21 in1023.0 mb 0.00 in0.0 mm 0.00 in0.0 mm 0.00 in0.0 mm